createdAt,value
2022-10-19T00:01:49.654Z,99411.56
2022-10-19T00:04:37.332Z,99420.44
2022-10-19T00:07:24.994Z,99419.59
2022-10-19T00:10:12.824Z,99419.59
2022-10-19T00:13:02.017Z,99426.47
2022-10-19T00:15:49.558Z,99421.97
2022-10-19T00:18:37.169Z,99427.44
2022-10-19T00:21:25.016Z,99418.63
2022-10-19T00:24:13.026Z,99417.47
2022-10-19T00:27:00.841Z,99414.97
2022-10-19T00:29:50.192Z,99413.28
2022-10-19T00:32:37.880Z,99411.56
2022-10-19T00:35:25.380Z,99413.28
2022-10-19T00:38:12.857Z,99411.56
2022-10-19T00:41:00.475Z,99426.78
2022-10-19T00:44:03.525Z,99425.91
2022-10-19T00:46:53.181Z,99430.25
2022-10-19T00:49:46.629Z,99425.91
2022-10-19T00:52:34.417Z,99425.19
2022-10-19T00:55:22.647Z,99424.25
2022-10-19T00:58:11.004Z,99419.88
2022-10-19T01:01:00.494Z,99426.19
2022-10-19T01:03:50.032Z,99420.88
2022-10-19T01:06:38.635Z,99426.34
2022-10-19T01:09:26.351Z,99429.88
2022-10-19T01:12:36.452Z,99419.19
2022-10-19T01:15:37.193Z,99415.81
2022-10-19T01:18:39.423Z,99423.53
2022-10-19T01:21:35.895Z,99414.00
2022-10-19T01:24:46.741Z,99415.09
2022-10-19T01:28:04.274Z,99417.47
2022-10-19T01:31:03.649Z,99412.16
2022-10-19T01:34:03.765Z,99414.28
2022-10-19T01:37:03.917Z,99410.75
2022-10-19T01:40:00.483Z,99410.91
2022-10-19T01:42:59.623Z,99402.06
2022-10-19T01:45:55.680Z,99403.03
2022-10-19T01:48:52.076Z,99408.38
2022-10-19T01:51:50.845Z,99401.38
2022-10-19T01:54:44.013Z,99394.50
2022-10-19T01:57:38.523Z,99391.97
2022-10-19T02:00:30.308Z,99384.94
2022-10-19T02:03:21.491Z,99384.78
2022-10-19T02:06:12.119Z,99382.25
2022-10-19T02:09:00.181Z,99382.41
2022-10-19T02:11:53.399Z,99378.06
2022-10-19T02:14:48.688Z,99373.72
2022-10-19T02:17:43.283Z,99369.47
2022-10-19T02:20:32.498Z,99359.94
2022-10-19T02:23:26.761Z,99356.47
2022-10-19T02:26:14.949Z,99362.47
2022-10-19T02:29:03.399Z,99354.63
2022-10-19T02:31:51.032Z,99355.75
2022-10-19T02:34:40.966Z,99361.09
2022-10-19T02:37:30.200Z,99361.09
2022-10-19T02:40:18.310Z,99358.00
2022-10-19T02:43:13.324Z,99355.06
2022-10-19T02:46:09.205Z,99355.78
2022-10-19T02:48:59.350Z,99350.72
2022-10-19T02:52:00.588Z,99356.06
2022-10-19T02:54:49.816Z,99356.19
2022-10-19T02:57:38.072Z,99357.31
2022-10-19T03:00:25.935Z,99359.13
2022-10-19T03:03:14.056Z,99358.16
2022-10-19T03:06:02.346Z,99353.66
2022-10-19T03:08:50.018Z,99353.38
2022-10-19T03:11:38.854Z,99344.00
2022-10-19T03:14:27.064Z,99347.63
2022-10-19T03:17:15.385Z,99350.44
2022-10-19T03:20:03.471Z,99353.22
2022-10-19T03:25:46.102Z,99362.38
2022-10-19T03:28:35.861Z,99359.69
2022-10-19T03:31:23.499Z,99353.53
2022-10-19T03:34:11.347Z,99358.16
2022-10-19T03:36:59.380Z,99352.97
2022-10-19T03:39:47.166Z,99347.63
2022-10-19T03:42:35.645Z,99351.84
2022-10-19T03:45:25.174Z,99348.22
2022-10-19T03:48:13.013Z,99345.56
2022-10-19T03:51:01.844Z,99349.88
2022-10-19T03:53:53.662Z,99358.69
2022-10-19T03:56:44.378Z,99355.09
2022-10-19T03:59:32.449Z,99357.75
2022-10-19T04:02:21.537Z,99349.59
2022-10-19T04:05:10.404Z,99356.63
2022-10-19T04:07:58.227Z,99351.28
2022-10-19T04:10:46.439Z,99363.63
2022-10-19T04:13:35.623Z,99356.63
2022-10-19T04:16:24.991Z,99353.94
2022-10-19T04:19:16.787Z,99354.81
2022-10-19T04:22:04.710Z,99343.28
2022-10-19T04:24:53.170Z,99336.69
2022-10-19T04:27:40.692Z,99336.69
2022-10-19T04:30:28.529Z,99338.66
2022-10-19T04:33:16.774Z,99342.00
2022-10-19T04:36:09.405Z,99341.47
2022-10-19T04:38:56.972Z,99347.91
2022-10-19T04:41:44.428Z,99340.75
2022-10-19T04:44:32.425Z,99343.56
2022-10-19T04:47:20.609Z,99346.22
2022-10-19T04:50:08.454Z,99344.56
2022-10-19T04:52:57.730Z,99347.09
2022-10-19T04:55:45.521Z,99339.09
2022-10-19T04:58:33.254Z,99340.75
2022-10-19T05:01:23.605Z,99344.28
2022-10-19T05:04:11.957Z,99337.25
2022-10-19T05:07:00.137Z,99337.94
2022-10-19T05:09:51.457Z,99330.94
2022-10-19T05:12:39.209Z,99340.63
2022-10-19T05:15:26.996Z,99328.28
2022-10-19T05:18:14.510Z,99334.56
2022-10-19T05:21:04.505Z,99328.56
2022-10-19T05:23:55.299Z,99332.91
2022-10-19T05:26:44.243Z,99330.22
2022-10-19T05:29:33.882Z,99328.56
2022-10-19T05:32:27.858Z,99332.22
2022-10-19T05:35:18.638Z,99335.72
2022-10-19T05:38:09.188Z,99329.38
2022-10-19T05:40:58.059Z,99335.56
2022-10-19T05:43:49.576Z,99334.72
2022-10-19T05:46:38.101Z,99338.50
2022-10-19T05:49:26.131Z,99333.31
2022-10-19T05:52:15.702Z,99340.50
2022-10-19T05:55:03.981Z,99340.63
2022-10-19T05:57:52.446Z,99337.13
2022-10-19T06:00:41.302Z,99338.13
2022-10-19T06:03:30.345Z,99338.94
2022-10-19T06:06:18.104Z,99334.59
2022-10-19T06:09:19.769Z,99336.41
2022-10-19T06:15:10.390Z,99341.72
2022-10-19T06:18:00.570Z,99350.44
2022-10-19T06:20:48.550Z,99359.44
2022-10-19T06:23:37.279Z,99356.91
2022-10-19T06:26:28.761Z,99359.44
2022-10-19T06:29:18.345Z,99363.78
2022-10-19T06:32:06.191Z,99361.09
2022-10-19T06:34:56.614Z,99355.78
2022-10-19T06:37:45.085Z,99367.16
2022-10-19T06:40:32.706Z,99363.50
2022-10-19T06:43:20.303Z,99368.69
2022-10-19T06:46:11.529Z,99363.22
2022-10-19T06:49:01.981Z,99362.22
2022-10-19T06:51:51.183Z,99360.28
2022-10-19T06:54:38.972Z,99363.63
2022-10-19T06:57:27.306Z,99367.00
2022-10-19T07:00:17.474Z,99364.34
2022-10-19T07:03:05.514Z,99355.47
2022-10-19T07:05:58.277Z,99362.53
2022-10-19T07:08:47.776Z,99368.66
2022-10-19T07:11:35.372Z,99368.66
2022-10-19T07:14:24.892Z,99371.47
2022-10-19T07:17:13.318Z,99375.72
2022-10-19T07:20:00.984Z,99384.38
2022-10-19T07:22:48.989Z,99387.63
2022-10-19T07:25:37.899Z,99394.78
2022-10-19T07:28:25.588Z,99399.28
2022-10-19T07:31:19.589Z,99399.28
2022-10-19T07:34:14.254Z,99396.47
2022-10-19T07:37:01.987Z,99391.16
2022-10-19T07:39:49.644Z,99387.78
2022-10-19T07:42:39.234Z,99389.72
2022-10-19T07:45:26.879Z,99389.72
2022-10-19T07:48:14.512Z,99393.97
2022-10-19T07:51:04.933Z,99389.44
2022-10-19T07:53:54.349Z,99394.78
2022-10-19T07:56:42.516Z,99387.78
2022-10-19T07:59:31.847Z,99396.34
2022-10-19T08:02:20.189Z,99401.50
2022-10-19T08:05:11.589Z,99397.59
2022-10-19T08:08:01.605Z,99398.41
2022-10-19T08:10:50.881Z,99400.00
2022-10-19T08:13:39.139Z,99409.94
2022-10-19T08:16:32.816Z,99409.94
2022-10-19T08:19:22.530Z,99414.41
2022-10-19T08:22:10.825Z,99409.94
2022-10-19T08:24:58.543Z,99404.59
2022-10-19T08:27:45.977Z,99406.28
2022-10-19T08:30:36.602Z,99405.72
2022-10-19T08:33:26.492Z,99408.81
2022-10-19T08:36:15.415Z,99406.56
2022-10-19T08:39:04.997Z,99398.25
2022-10-19T08:42:06.088Z,99396.31
2022-10-19T08:45:28.234Z,99388.88
2022-10-19T08:48:29.804Z,99386.06
2022-10-19T08:51:17.482Z,99388.28
2022-10-19T08:54:14.957Z,99390.50
2022-10-19T08:57:16.301Z,99391.78
2022-10-19T09:00:15.686Z,99387.28
2022-10-19T09:03:23.123Z,99404.53
2022-10-19T09:06:36.199Z,99398.09
2022-10-19T09:09:24.741Z,99395.13
2022-10-19T09:12:18.958Z,99395.56
2022-10-19T09:15:13.989Z,99405.81
2022-10-19T09:18:03.513Z,99397.38
2022-10-19T09:20:56.984Z,99404.09
2022-10-19T09:23:59.267Z,99400.84
2022-10-19T09:26:54.491Z,99410.78
2022-10-19T09:29:45.980Z,99407.84
2022-10-19T09:32:38.956Z,99414.97
2022-10-19T09:35:31.463Z,99410.16
2022-10-19T09:38:21.971Z,99409.44
2022-10-19T09:41:19.577Z,99415.03
2022-10-19T09:44:07.308Z,99405.88
2022-10-19T09:47:11.530Z,99407.09
2022-10-19T09:50:20.025Z,99413.84
2022-10-19T09:53:22.104Z,99408.75
2022-10-19T09:56:20.766Z,99403.66
2022-10-19T09:59:23.438Z,99397.41
2022-10-19T10:02:20.250Z,99391.78
2022-10-19T10:05:15.857Z,99389.16
2022-10-19T10:08:05.342Z,99382.53
2022-10-19T10:11:08.024Z,99383.91
2022-10-19T10:14:03.960Z,99375.69
2022-10-19T10:16:57.880Z,99382.09
2022-10-19T10:20:17.223Z,99378.50
2022-10-19T10:23:10.491Z,99366.19
2022-10-19T10:26:00.266Z,99374.00
2022-10-19T10:28:51.019Z,99369.75
2022-10-19T10:31:43.394Z,99363.47
2022-10-19T10:35:00.988Z,99356.53
2022-10-19T10:37:49.716Z,99351.06
2022-10-19T10:40:39.771Z,99342.22
2022-10-19T10:43:34.248Z,99339.63
2022-10-19T10:46:28.064Z,99337.13
2022-10-19T10:49:25.920Z,99333.94
2022-10-19T10:52:17.216Z,99325.91
2022-10-19T10:55:19.180Z,99321.19
2022-10-19T10:58:19.732Z,99323.56
2022-10-19T11:01:19.247Z,99320.56
2022-10-19T11:04:12.384Z,99308.72
2022-10-19T11:07:10.526Z,99316.28
2022-10-19T11:10:00.544Z,99307.41
2022-10-19T11:12:52.848Z,99303.13
2022-10-19T11:15:52.011Z,99300.94
2022-10-19T11:18:45.932Z,99306.31
2022-10-19T11:21:39.214Z,99289.06
2022-10-19T11:24:39.807Z,99285.72
2022-10-19T11:27:39.927Z,99283.06
2022-10-19T11:30:28.824Z,99286.25
2022-10-19T11:33:34.964Z,99280.56
2022-10-19T11:36:41.792Z,99275.56
2022-10-19T11:39:43.455Z,99262.81
2022-10-19T11:42:44.722Z,99266.34
2022-10-19T11:45:45.734Z,99258.44
2022-10-19T11:49:16.536Z,99253.91
2022-10-19T11:52:19.866Z,99254.25
2022-10-19T11:55:16.379Z,99254.06
2022-10-19T11:58:13.792Z,99242.00
2022-10-19T12:01:10.521Z,99242.38
2022-10-19T12:04:29.190Z,99235.94
2022-10-19T12:07:33.417Z,99229.66
2022-10-19T12:10:29.929Z,99214.47
2022-10-19T12:13:23.070Z,99208.22
2022-10-19T12:16:15.453Z,99202.84
2022-10-19T12:19:06.787Z,99207.00
2022-10-19T12:21:56.634Z,99204.41
2022-10-19T12:24:44.570Z,99197.41
2022-10-19T12:27:37.611Z,99198.97
2022-10-19T12:30:26.270Z,99193.81
2022-10-19T12:33:22.410Z,99181.63
2022-10-19T12:36:28.774Z,99172.91
2022-10-19T12:39:23.994Z,99171.00
2022-10-19T12:42:21.106Z,99166.69
2022-10-19T12:45:21.999Z,99172.13
2022-10-19T12:48:22.145Z,99167.00
2022-10-19T12:51:16.086Z,99173.66
2022-10-19T12:54:10.657Z,99164.38
2022-10-19T12:57:01.574Z,99158.41
2022-10-19T13:00:01.598Z,99154.63
2022-10-19T13:03:00.684Z,99150.63
2022-10-19T13:05:57.956Z,99141.13
2022-10-19T13:08:55.069Z,99135.25
2022-10-19T13:12:29.481Z,99119.63
2022-10-19T13:15:53.488Z,99115.13
2022-10-19T13:19:22.787Z,99122.44
2022-10-19T13:22:27.251Z,99116.72
2022-10-19T13:25:27.323Z,99109.13
2022-10-19T13:28:58.186Z,99106.03
2022-10-19T13:31:46.322Z,99098.81
2022-10-19T13:34:35.656Z,99093.03
2022-10-19T13:37:23.658Z,99084.03
2022-10-19T13:40:24.523Z,99083.31
2022-10-19T13:43:20.330Z,99090.59
2022-10-19T13:46:17.009Z,99088.09
2022-10-19T13:49:27.760Z,99077.56
2022-10-19T13:52:52.270Z,99080.25
2022-10-19T13:56:33.901Z,99078.22
2022-10-19T13:59:46.965Z,99078.41
2022-10-19T14:02:56.434Z,99075.06
2022-10-19T14:05:56.447Z,99072.50
2022-10-19T14:09:15.280Z,99073.78
2022-10-19T14:12:08.212Z,99064.41
2022-10-19T14:14:58.248Z,99078.19
2022-10-19T14:17:46.545Z,99071.47
2022-10-19T14:20:39.552Z,99070.78
2022-10-19T14:23:32.717Z,99063.81
2022-10-19T14:26:24.332Z,99065.50
2022-10-19T14:29:14.782Z,99045.25
2022-10-19T14:32:03.530Z,99050.44
2022-10-19T14:34:52.246Z,99046.97
2022-10-19T14:37:43.764Z,99034.25
2022-10-19T14:40:33.901Z,99035.78
2022-10-19T14:43:25.057Z,99038.41
2022-10-19T14:46:15.351Z,99030.88
2022-10-19T14:49:05.818Z,99029.59
2022-10-19T14:51:59.347Z,99039.97
2022-10-19T14:54:49.773Z,99031.97
2022-10-19T14:57:41.200Z,99034.81
2022-10-19T15:00:34.021Z,99030.78
2022-10-19T15:03:24.120Z,99033.44
2022-10-19T15:06:19.629Z,99028.13
2022-10-19T15:22:17.963Z,99021.84
2022-10-19T15:25:31.041Z,99017.00
2022-10-19T15:28:36.025Z,99017.88
2022-10-19T15:31:29.180Z,99027.78
2022-10-19T15:34:29.236Z,99018.41
2022-10-19T15:37:23.453Z,99027.84
2022-10-19T15:40:15.007Z,99021.53
2022-10-19T15:43:35.847Z,99021.66
2022-10-19T15:46:28.326Z,99017.91
2022-10-19T15:49:59.273Z,99020.22
2022-10-19T15:52:48.466Z,99009.84
2022-10-19T15:55:36.323Z,99015.66
2022-10-19T15:58:23.887Z,99024.97
2022-10-19T16:01:18.173Z,99028.28
2022-10-19T16:04:06.557Z,99025.34
2022-10-19T16:06:55.172Z,99025.13
2022-10-19T16:09:44.236Z,99032.72
2022-10-19T16:12:31.739Z,99029.94
2022-10-19T16:15:23.547Z,99031.34
2022-10-19T16:18:12.467Z,99026.03
2022-10-19T16:21:00.405Z,99026.56
2022-10-19T16:23:48.469Z,99023.78
2022-10-19T16:26:37.650Z,99022.16
2022-10-19T16:29:28.232Z,99029.22
2022-10-19T16:32:17.115Z,99028.38
2022-10-19T16:35:04.929Z,99029.22
2022-10-19T16:37:54.759Z,99047.81
2022-10-19T16:40:42.208Z,99049.47
2022-10-19T16:43:31.425Z,99054.63
2022-10-19T16:46:23.886Z,99060.78
2022-10-19T16:49:11.450Z,99060.59
2022-10-19T16:52:00.877Z,99056.84
2022-10-19T16:54:48.537Z,99061.81
2022-10-19T16:57:36.956Z,99061.41
2022-10-19T17:00:26.001Z,99066.19
2022-10-19T17:03:13.921Z,99064.63
2022-10-19T17:06:03.931Z,99064.22
2022-10-19T17:09:23.628Z,99072.31
2022-10-19T17:11:59.509Z,99069.06
2022-10-19T17:14:46.957Z,99066.66
2022-10-19T17:17:36.688Z,99072.41
2022-10-19T17:20:25.185Z,99073.31
2022-10-19T17:23:12.846Z,99070.91
2022-10-19T17:26:00.527Z,99078.97
2022-10-19T17:28:49.236Z,99080.88
2022-10-19T17:31:38.602Z,99071.13
2022-10-19T17:34:28.283Z,99079.03
2022-10-19T17:37:15.931Z,99077.25
2022-10-19T17:40:03.271Z,99076.34
2022-10-19T17:42:50.644Z,99080.91
2022-10-19T17:45:38.266Z,99084.31
2022-10-19T17:48:25.771Z,99082.53
2022-10-19T17:51:17.722Z,99075.09
2022-10-19T17:54:08.728Z,99075.69
2022-10-19T17:56:56.147Z,99072.94
2022-10-19T17:59:52.675Z,99087.84
2022-10-19T18:02:40.866Z,99083.09
2022-10-19T18:05:29.051Z,99088.16
2022-10-19T18:08:18.024Z,99085.13
2022-10-19T18:11:10.025Z,99083.16
2022-10-19T18:14:01.974Z,99090.75
2022-10-19T18:16:49.373Z,99079.00
2022-10-19T18:19:40.097Z,99079.41
2022-10-19T18:22:27.625Z,99086.16
2022-10-19T18:25:53.987Z,99084.31
2022-10-19T18:28:43.282Z,99083.22
2022-10-19T18:31:33.238Z,99087.97
2022-10-19T18:34:39.817Z,99086.03
2022-10-19T18:37:27.702Z,99084.91
2022-10-19T18:40:19.362Z,99093.03
2022-10-19T18:43:09.568Z,99105.38
2022-10-19T18:46:01.298Z,99098.81
2022-10-19T18:48:52.483Z,99099.50
2022-10-19T18:51:40.663Z,99103.16
2022-10-19T18:54:28.318Z,99093.06
2022-10-19T18:57:20.085Z,99086.34
2022-10-19T19:00:16.281Z,99088.56
2022-10-19T19:03:05.869Z,99082.81
2022-10-19T19:05:55.855Z,99078.03
2022-10-19T19:08:46.066Z,99075.97
2022-10-19T19:11:37.991Z,99074.66
2022-10-19T19:14:45.074Z,99074.25
2022-10-19T19:17:37.529Z,99079.28
2022-10-19T19:20:27.328Z,99068.91
2022-10-19T19:23:16.682Z,99073.81
2022-10-19T19:26:06.378Z,99078.00
2022-10-19T19:28:57.353Z,99073.91
2022-10-19T19:31:52.891Z,99073.63
2022-10-19T19:34:54.479Z,99069.72
2022-10-19T19:37:46.562Z,99076.25
2022-10-19T19:40:40.609Z,99069.94
2022-10-19T19:43:38.254Z,99073.97
2022-10-19T19:46:31.218Z,99069.88
2022-10-19T19:49:25.103Z,99069.56
2022-10-19T19:52:13.964Z,99065.63
2022-10-19T19:55:11.208Z,99073.13
2022-10-19T19:58:01.682Z,99058.00
2022-10-19T20:00:51.903Z,99072.50
2022-10-19T20:03:39.989Z,99069.44
2022-10-19T20:06:39.947Z,99063.78
2022-10-19T20:09:29.179Z,99059.84
2022-10-19T20:12:16.978Z,99062.91
2022-10-19T20:15:04.669Z,99071.25
2022-10-19T20:17:52.202Z,99074.28
2022-10-19T20:20:44.180Z,99062.53
2022-10-19T20:23:36.650Z,99060.25
2022-10-19T20:26:31.586Z,99066.06
2022-10-19T20:29:19.412Z,99053.31
2022-10-19T20:32:10.096Z,99056.34
2022-10-19T20:34:57.832Z,99047.25
2022-10-19T20:37:59.429Z,99055.56
2022-10-19T20:40:48.352Z,99057.78
2022-10-19T20:43:39.310Z,99063.59
2022-10-19T20:46:29.943Z,99063.13
2022-10-19T20:49:19.618Z,99064.34
2022-10-19T20:52:11.101Z,99054.25
2022-10-19T20:54:59.053Z,99057.28
2022-10-19T20:57:47.806Z,99055.97
2022-10-19T21:00:35.140Z,99053.81
2022-10-19T21:03:27.006Z,99045.41
2022-10-19T21:06:17.785Z,99042.31
2022-10-19T21:09:06.108Z,99045.31
2022-10-19T21:12:05.600Z,99042.31
2022-10-19T21:14:56.046Z,99036.56
2022-10-19T21:17:49.209Z,99037.75
2022-10-19T21:20:36.584Z,99035.50
2022-10-19T21:23:26.406Z,99039.47
2022-10-19T21:26:22.749Z,99038.00
2022-10-19T21:29:14.533Z,99034.06
2022-10-19T21:32:04.636Z,99042.38
2022-10-19T21:34:55.037Z,99038.41
2022-10-19T21:37:50.294Z,99041.41
2022-10-19T21:40:40.971Z,99037.56
2022-10-19T21:43:30.893Z,99043.09
2022-10-19T21:46:24.109Z,99038.41
2022-10-19T21:49:13.987Z,99040.56
2022-10-19T21:52:09.724Z,99036.59
2022-10-19T21:55:02.189Z,99041.28
2022-10-19T21:57:50.062Z,99045.13
2022-10-19T22:00:42.683Z,99042.03
2022-10-19T22:03:30.310Z,99043.09
2022-10-19T22:06:21.843Z,99048.59
2022-10-19T22:09:13.431Z,99049.06
2022-10-19T22:12:00.977Z,99040.69
2022-10-19T22:14:48.887Z,99036.81
2022-10-19T22:17:38.999Z,99036.09
2022-10-19T22:20:26.673Z,99027.66
2022-10-19T22:23:15.613Z,99014.81
2022-10-19T22:26:03.380Z,99013.34
2022-10-19T22:28:51.615Z,99008.41
2022-10-19T22:31:39.906Z,99011.53
2022-10-19T22:34:27.637Z,99011.78
2022-10-19T22:37:15.187Z,99008.63
2022-10-19T22:40:04.485Z,99013.28
2022-10-19T22:42:52.674Z,98996.84
2022-10-19T22:45:40.801Z,98998.97
2022-10-19T22:48:33.722Z,98996.78
2022-10-19T22:51:23.418Z,99000.63
2022-10-19T22:54:13.423Z,98994.84
2022-10-19T22:57:05.812Z,98991.72
2022-10-19T22:59:55.278Z,98995.56
2022-10-19T23:02:43.027Z,98985.22
2022-10-19T23:05:30.940Z,98994.41
2022-10-19T23:08:18.866Z,99004.38
2022-10-19T23:11:07.088Z,99003.66
2022-10-19T23:13:55.843Z,99008.31
2022-10-19T23:16:43.342Z,99004.31
2022-10-19T23:19:31.532Z,99007.91
2022-10-19T23:22:21.342Z,99006.69
2022-10-19T23:25:10.287Z,99002.50
2022-10-19T23:27:57.923Z,99015.06
2022-10-19T23:30:47.014Z,99011.78
2022-10-19T23:33:35.559Z,99009.25
2022-10-19T23:36:27.904Z,99006.13
2022-10-19T23:39:15.835Z,99012.81
2022-10-19T23:42:03.346Z,99014.59
2022-10-19T23:44:50.768Z,99015.66
2022-10-19T23:47:40.355Z,99004.16
2022-10-19T23:50:27.898Z,99003.41
2022-10-19T23:53:15.275Z,99003.41
2022-10-19T23:56:05.634Z,98998.97
2022-10-19T23:58:54.417Z,98993.38
